createdAt,value
2018-03-04T00:00:34.494Z,7.27
2018-03-04T00:03:02.042Z,6.10
2018-03-04T00:05:29.714Z,6.60
2018-03-04T00:07:57.255Z,7.17
2018-03-04T00:10:24.804Z,6.10
2018-03-04T00:12:52.523Z,6.07
2018-03-04T00:15:20.057Z,5.83
2018-03-04T00:17:47.607Z,4.63
2018-03-04T00:20:15.196Z,4.53
2018-03-04T00:22:42.737Z,4.43
2018-03-04T00:25:10.276Z,4.77
2018-03-04T00:27:37.953Z,4.90
2018-03-04T00:30:05.502Z,3.20
2018-03-04T00:32:33.040Z,4.27
2018-03-04T00:35:00.596Z,3.67
2018-03-04T00:37:28.130Z,3.83
2018-03-04T00:39:55.661Z,4.93
2018-03-04T00:42:23.227Z,4.50
2018-03-04T00:44:50.767Z,4.40
2018-03-04T00:47:18.305Z,4.10
2018-03-04T00:49:45.870Z,3.13
2018-03-04T00:52:13.407Z,3.20
2018-03-04T00:54:40.951Z,2.83
2018-03-04T00:57:08.677Z,3.30
2018-03-04T00:59:36.209Z,3.43
2018-03-04T01:02:03.744Z,3.63
2018-03-04T01:04:31.326Z,3.43
2018-03-04T01:06:58.878Z,4.03
2018-03-04T01:09:26.415Z,3.27
2018-03-04T01:11:54.326Z,3.63
2018-03-04T01:14:21.871Z,3.63
2018-03-04T01:16:49.408Z,2.97
2018-03-04T01:19:17.086Z,3.73
2018-03-04T01:21:44.624Z,3.47
2018-03-04T01:24:12.156Z,3.53
2018-03-04T01:26:39.719Z,3.40
2018-03-04T01:29:07.931Z,3.23
2018-03-04T01:31:35.475Z,3.50
2018-03-04T01:34:03.224Z,3.83
2018-03-04T01:36:30.757Z,3.90
2018-03-04T01:38:58.285Z,4.57
2018-03-04T01:41:25.857Z,6.03
2018-03-04T01:43:53.403Z,6.30
2018-03-04T01:46:20.945Z,5.57
2018-03-04T01:48:48.670Z,6.83
2018-03-04T01:51:16.247Z,8.10
2018-03-04T01:53:43.797Z,10.17
2018-03-04T01:56:11.530Z,12.17
2018-03-04T01:58:39.088Z,13.20
2018-03-04T02:01:06.636Z,14.17
2018-03-04T02:03:34.231Z,15.60
2018-03-04T02:06:01.770Z,14.27
2018-03-04T02:08:29.319Z,14.90
2018-03-04T02:10:57.054Z,14.00
2018-03-04T02:13:24.600Z,13.77
2018-03-04T02:15:52.145Z,13.97
2018-03-04T02:18:19.898Z,14.03
2018-03-04T02:20:47.442Z,14.67
2018-03-04T02:23:14.981Z,14.90
2018-03-04T02:25:42.550Z,15.03
2018-03-04T02:28:10.100Z,15.60
2018-03-04T02:30:37.646Z,15.07
2018-03-04T02:33:05.338Z,14.03
2018-03-04T02:35:32.876Z,14.00
2018-03-04T02:38:00.414Z,12.90
2018-03-04T02:40:28.050Z,12.70
2018-03-04T02:42:55.602Z,13.07
2018-03-04T02:45:23.158Z,13.30
2018-03-04T02:47:50.748Z,14.53
2018-03-04T02:50:18.298Z,12.53
2018-03-04T02:52:45.858Z,13.27
2018-03-04T02:55:13.548Z,11.30
2018-03-04T02:57:41.094Z,11.47
2018-03-04T03:00:08.654Z,11.23
2018-03-04T03:02:36.553Z,13.03
2018-03-04T03:05:04.073Z,11.73
2018-03-04T03:07:31.623Z,12.23
2018-03-04T03:09:59.201Z,14.30
2018-03-04T03:12:26.747Z,12.77
2018-03-04T03:14:54.286Z,12.40
2018-03-04T03:17:21.879Z,11.87
2018-03-04T03:19:49.432Z,11.17
2018-03-04T03:22:17.020Z,11.70
2018-03-04T03:24:44.731Z,12.23
2018-03-04T03:27:12.272Z,12.70
2018-03-04T03:29:39.845Z,12.47
2018-03-04T03:32:07.530Z,11.63
2018-03-04T03:34:35.078Z,12.00
2018-03-04T03:37:02.629Z,14.13
2018-03-04T03:39:30.193Z,13.37
2018-03-04T03:41:57.732Z,19.70
2018-03-04T03:44:25.274Z,17.47
2018-03-04T03:46:52.889Z,15.07
2018-03-04T03:49:20.425Z,15.03
2018-03-04T03:51:47.978Z,15.20
2018-03-04T03:54:15.645Z,13.70
2018-03-04T03:56:43.185Z,15.70
2018-03-04T03:59:10.735Z,15.87
2018-03-04T04:01:38.449Z,14.10
2018-03-04T04:04:05.997Z,13.80
2018-03-04T04:06:33.563Z,13.73
2018-03-04T04:09:01.106Z,16.37
2018-03-04T04:11:28.661Z,17.40
2018-03-04T04:13:56.226Z,18.03
2018-03-04T04:16:23.779Z,16.33
2018-03-04T04:18:51.330Z,15.07
2018-03-04T04:21:19.101Z,15.50
2018-03-04T04:23:46.654Z,16.30
2018-03-04T04:26:14.198Z,14.97
2018-03-04T04:28:41.879Z,15.13
2018-03-04T04:31:09.440Z,15.83
2018-03-04T04:33:36.984Z,15.40
2018-03-04T04:36:04.578Z,15.03
2018-03-04T04:38:32.131Z,16.10
2018-03-04T04:40:59.670Z,16.30
2018-03-04T04:43:27.342Z,15.70
2018-03-04T04:45:54.889Z,15.53
2018-03-04T04:48:22.429Z,16.00
2018-03-04T04:50:50.118Z,14.50
2018-03-04T04:53:17.689Z,14.43
2018-03-04T04:55:45.237Z,11.97
2018-03-04T04:58:12.809Z,10.73
2018-03-04T05:00:40.363Z,9.27
2018-03-04T05:03:07.898Z,9.30
2018-03-04T05:05:35.626Z,8.70
2018-03-04T05:08:03.166Z,8.90
2018-03-04T05:10:30.711Z,8.20
2018-03-04T05:12:58.386Z,7.47
2018-03-04T05:15:25.932Z,7.07
2018-03-04T05:17:53.501Z,6.90
2018-03-04T05:20:21.060Z,7.03
2018-03-04T05:22:48.594Z,6.63
2018-03-04T05:25:16.139Z,8.47
2018-03-04T05:27:43.828Z,7.63
2018-03-04T05:30:11.370Z,6.83
2018-03-04T05:32:38.912Z,6.20
2018-03-04T05:35:06.646Z,6.40
2018-03-04T05:37:34.191Z,6.80
2018-03-04T05:40:01.741Z,11.60
2018-03-04T05:42:29.475Z,8.30
2018-03-04T05:44:57.019Z,12.60
2018-03-04T05:47:24.565Z,8.87
2018-03-04T05:49:52.129Z,8.30
2018-03-04T05:52:19.671Z,7.53
2018-03-04T05:54:47.207Z,7.93
2018-03-04T05:57:15.077Z,7.90
2018-03-04T05:59:42.637Z,10.60
2018-03-04T06:02:10.191Z,9.60
2018-03-04T06:04:38.074Z,9.50
2018-03-04T06:07:06.505Z,12.80
2018-03-04T06:09:34.048Z,31.77
2018-03-04T06:12:01.700Z,13.03
2018-03-04T06:14:29.257Z,11.90
2018-03-04T06:16:56.824Z,14.90
2018-03-04T06:19:24.418Z,70.97
2018-03-04T06:21:51.983Z,26.40
2018-03-04T06:24:19.519Z,17.17
2018-03-04T06:26:47.203Z,21.37
2018-03-04T06:29:14.742Z,16.70
2018-03-04T06:31:42.284Z,13.27
2018-03-04T06:34:10.026Z,9.97
2018-03-04T06:36:37.571Z,9.13
2018-03-04T06:39:05.167Z,10.57
2018-03-04T06:41:32.894Z,11.70
2018-03-04T06:44:00.463Z,14.83
2018-03-04T06:46:28.011Z,15.63
2018-03-04T06:48:55.780Z,13.50
2018-03-04T06:51:23.328Z,14.23
2018-03-04T06:53:50.870Z,13.97
2018-03-04T06:56:18.454Z,13.70
2018-03-04T06:58:46.001Z,12.47
2018-03-04T07:01:13.549Z,12.10
2018-03-04T07:03:41.283Z,11.40
2018-03-04T07:06:08.823Z,9.97
2018-03-04T07:08:36.370Z,10.40
2018-03-04T07:11:03.949Z,10.23
2018-03-04T07:13:31.494Z,9.43
2018-03-04T07:15:59.040Z,9.33
2018-03-04T07:18:26.762Z,9.37
2018-03-04T07:20:54.305Z,8.27
2018-03-04T07:23:21.849Z,8.60
2018-03-04T07:25:49.423Z,7.53
2018-03-04T07:28:16.970Z,6.63
2018-03-04T07:30:44.507Z,7.60
2018-03-04T07:33:12.239Z,6.40
2018-03-04T07:35:39.775Z,6.73
2018-03-04T07:38:07.332Z,26.03
2018-03-04T07:40:34.933Z,359.43
2018-03-04T07:43:02.495Z,99.13
2018-03-04T07:45:30.044Z,13.60
2018-03-04T07:47:57.740Z,6.60
2018-03-04T07:50:25.310Z,5.53
2018-03-04T07:52:52.842Z,4.80
2018-03-04T07:55:20.449Z,5.10
2018-03-04T07:57:47.986Z,4.73
2018-03-04T08:00:15.534Z,10.80
2018-03-04T08:02:43.105Z,5.77
2018-03-04T08:05:10.656Z,21.60
2018-03-04T08:07:38.219Z,20.37
2018-03-04T08:10:05.766Z,14.37
2018-03-04T08:12:33.351Z,16.83
2018-03-04T08:15:00.917Z,11.60
2018-03-04T08:17:28.466Z,8.63
2018-03-04T08:19:56.012Z,7.10
2018-03-04T08:22:23.606Z,6.77
2018-03-04T08:25:02.678Z,5.50
2018-03-04T08:27:41.989Z,5.73
2018-03-04T08:30:09.528Z,5.70
2018-03-04T08:32:37.079Z,4.60
2018-03-04T08:35:04.914Z,4.07
2018-03-04T08:37:32.459Z,5.30
2018-03-04T08:40:00.027Z,7.53
2018-03-04T08:42:27.682Z,6.53
2018-03-04T08:44:55.225Z,6.80
2018-03-04T08:47:22.770Z,5.13
2018-03-04T08:49:50.362Z,5.67
2018-03-04T08:52:17.912Z,7.47
2018-03-04T08:54:45.446Z,5.57
2018-03-04T08:57:13.037Z,7.27
2018-03-04T08:59:40.595Z,12.83
2018-03-04T09:02:08.139Z,9.30
2018-03-04T09:04:36.062Z,6.77
2018-03-04T09:07:03.623Z,8.10
2018-03-04T09:09:31.217Z,9.43
2018-03-04T09:11:58.773Z,11.73
2018-03-04T09:14:26.312Z,5.70
2018-03-04T09:16:53.873Z,5.13
2018-03-04T09:19:21.461Z,5.13
2018-03-04T09:21:49.014Z,5.03
2018-03-04T09:24:16.562Z,5.63
2018-03-04T09:26:44.289Z,5.77
2018-03-04T09:29:11.821Z,5.57
2018-03-04T09:31:39.358Z,5.60
2018-03-04T09:34:06.950Z,4.83
2018-03-04T09:36:34.517Z,4.70
2018-03-04T09:39:02.066Z,5.50
2018-03-04T09:41:29.794Z,5.07
2018-03-04T09:43:57.364Z,4.57
2018-03-04T09:46:24.914Z,4.70
2018-03-04T09:48:52.486Z,5.40
2018-03-04T09:51:20.070Z,7.83
2018-03-04T09:53:47.618Z,6.87
2018-03-04T09:56:16.117Z,6.07
2018-03-04T09:58:43.687Z,5.80
2018-03-04T10:01:11.228Z,4.67
2018-03-04T10:03:38.824Z,3.97
2018-03-04T10:06:06.384Z,3.23
2018-03-04T10:08:33.948Z,3.77
2018-03-04T10:11:01.540Z,2.63
2018-03-04T10:13:29.127Z,20.77
2018-03-04T10:15:56.671Z,2.67
2018-03-04T10:18:24.410Z,3.00
2018-03-04T10:20:51.957Z,3.80
2018-03-04T10:23:19.549Z,3.40
2018-03-04T10:25:47.151Z,3.70
2018-03-04T10:28:14.716Z,2.80
2018-03-04T10:30:42.259Z,2.73
2018-03-04T10:33:10.006Z,2.97
2018-03-04T10:35:37.565Z,30.83
2018-03-04T10:38:05.102Z,4.53
2018-03-04T10:40:32.839Z,2.27
2018-03-04T10:43:00.380Z,2.33
2018-03-04T10:45:27.918Z,1.83
2018-03-04T10:47:55.499Z,2.87
2018-03-04T10:50:23.054Z,2.40
2018-03-04T10:52:50.620Z,2.40
2018-03-04T10:55:18.356Z,2.53
2018-03-04T10:57:45.885Z,2.47
2018-03-04T11:00:13.457Z,3.63
2018-03-04T11:02:41.838Z,5.17
2018-03-04T11:05:09.411Z,3.73
2018-03-04T11:07:37.011Z,2.70
2018-03-04T11:10:04.573Z,3.10
2018-03-04T11:12:32.110Z,3.83
2018-03-04T11:14:59.702Z,3.60
2018-03-04T11:17:27.254Z,2.70
2018-03-04T11:19:54.801Z,4.10
2018-03-04T11:22:22.377Z,3.37
2018-03-04T11:24:49.921Z,4.00
2018-03-04T11:27:17.459Z,2.70
2018-03-04T11:29:45.046Z,2.87
2018-03-04T11:32:12.594Z,3.57
2018-03-04T11:34:40.130Z,3.57
2018-03-04T11:37:07.710Z,4.27
2018-03-04T11:39:35.262Z,5.07
2018-03-04T11:42:02.812Z,5.97
2018-03-04T11:44:30.538Z,5.40
2018-03-04T11:46:58.073Z,6.57
2018-03-04T11:49:25.618Z,5.73
2018-03-04T11:51:53.202Z,5.37
2018-03-04T11:54:20.742Z,4.93
2018-03-04T11:56:48.287Z,4.63
2018-03-04T11:59:15.860Z,5.53
2018-03-04T12:01:43.424Z,7.07
2018-03-04T12:04:10.986Z,7.27
2018-03-04T12:06:38.725Z,7.20
2018-03-04T12:09:06.292Z,8.33
2018-03-04T12:11:33.854Z,7.83
2018-03-04T12:14:01.783Z,7.70
2018-03-04T12:16:29.340Z,8.53
2018-03-04T12:18:56.916Z,8.90
2018-03-04T12:21:24.503Z,6.33
2018-03-04T12:23:52.044Z,7.47
2018-03-04T12:26:19.594Z,7.47
2018-03-04T12:28:47.177Z,6.90
2018-03-04T12:31:14.732Z,9.27
2018-03-04T12:33:42.289Z,6.60
2018-03-04T12:36:09.859Z,5.27
2018-03-04T12:38:37.409Z,4.87
2018-03-04T12:41:04.946Z,6.03
2018-03-04T12:43:32.824Z,4.53
2018-03-04T12:46:00.363Z,5.27
2018-03-04T12:48:27.902Z,5.40
2018-03-04T12:50:55.479Z,4.90
2018-03-04T12:53:23.040Z,4.63
2018-03-04T12:55:50.574Z,5.97
2018-03-04T12:58:18.150Z,7.23
2018-03-04T13:00:46.439Z,6.70
2018-03-04T13:03:13.973Z,7.27
2018-03-04T13:05:41.569Z,11.23
2018-03-04T13:08:09.156Z,8.10
2018-03-04T13:10:36.712Z,6.33
2018-03-04T13:13:04.446Z,5.57
2018-03-04T13:15:31.998Z,6.37
2018-03-04T13:17:59.556Z,5.80
2018-03-04T13:20:27.172Z,5.50
2018-03-04T13:22:54.732Z,4.50
2018-03-04T13:25:22.318Z,5.63
2018-03-04T13:27:49.930Z,4.80
2018-03-04T13:30:17.485Z,4.50
2018-03-04T13:32:45.056Z,4.43
2018-03-04T13:35:12.671Z,5.10
2018-03-04T13:37:40.214Z,4.50
2018-03-04T13:40:07.774Z,4.60
2018-03-04T13:42:35.640Z,5.47
2018-03-04T13:45:03.193Z,15.80
2018-03-04T13:47:30.774Z,7.93
2018-03-04T13:49:58.697Z,5.63
2018-03-04T13:52:26.268Z,7.43
2018-03-04T13:54:53.808Z,9.27
2018-03-04T13:57:21.410Z,6.87
2018-03-04T13:59:48.983Z,9.87
2018-03-04T14:02:16.571Z,7.37
2018-03-04T14:04:44.274Z,8.73
2018-03-04T14:07:11.838Z,6.30
2018-03-04T14:09:39.382Z,6.73
2018-03-04T14:12:07.075Z,7.90
2018-03-04T14:14:34.627Z,14.40
2018-03-04T14:17:02.186Z,8.97
2018-03-04T14:19:29.932Z,7.20
2018-03-04T14:21:57.491Z,9.27
2018-03-04T14:24:25.117Z,9.77
2018-03-04T14:26:52.878Z,12.13
2018-03-04T14:29:20.432Z,14.67
2018-03-04T14:31:48.006Z,17.20
2018-03-04T14:34:15.590Z,13.83
2018-03-04T14:36:43.152Z,12.27
2018-03-04T14:39:10.721Z,7.37
2018-03-04T14:41:38.598Z,9.00
2018-03-04T14:44:07.335Z,10.17
2018-03-04T14:46:34.883Z,12.50
2018-03-04T14:49:02.560Z,11.00
2018-03-04T14:51:30.126Z,9.50
2018-03-04T14:53:57.701Z,10.93
2018-03-04T14:56:25.417Z,10.50
2018-03-04T14:58:52.965Z,10.97
2018-03-04T15:01:20.529Z,11.97
2018-03-04T15:03:48.260Z,10.00
2018-03-04T15:06:15.814Z,10.67
2018-03-04T15:08:43.368Z,9.10
2018-03-04T15:11:11.014Z,13.07
2018-03-04T15:13:38.570Z,13.80
2018-03-04T15:16:06.168Z,10.67
2018-03-04T15:18:33.764Z,8.73
2018-03-04T15:21:01.314Z,8.20
2018-03-04T15:23:28.906Z,7.67
2018-03-04T15:25:56.537Z,10.23
2018-03-04T15:28:24.110Z,10.00
2018-03-04T15:30:51.671Z,8.73
2018-03-04T15:33:20.017Z,9.00
2018-03-04T15:35:47.573Z,10.27
2018-03-04T15:38:15.160Z,9.03
2018-03-04T15:40:42.901Z,11.97
2018-03-04T15:43:10.462Z,24.40
2018-03-04T15:45:38.013Z,19.80
2018-03-04T15:48:05.591Z,18.37
2018-03-04T15:50:33.148Z,15.00
2018-03-04T15:53:00.746Z,15.57
2018-03-04T15:55:28.337Z,16.83
2018-03-04T15:57:55.886Z,22.53
2018-03-04T16:00:23.470Z,17.30
2018-03-04T16:02:51.159Z,18.67
2018-03-04T16:05:18.726Z,14.77
2018-03-04T16:07:46.292Z,13.20
2018-03-04T16:10:13.869Z,12.53
2018-03-04T16:12:41.440Z,12.60
2018-03-04T16:15:09.047Z,12.70
2018-03-04T16:17:36.654Z,12.60
2018-03-04T16:20:04.267Z,14.70
2018-03-04T16:22:31.908Z,14.80
2018-03-04T16:24:59.493Z,15.07
2018-03-04T16:27:27.111Z,15.67
2018-03-04T16:29:54.867Z,17.93
2018-03-04T16:32:22.439Z,19.90
2018-03-04T16:34:50.015Z,21.43
2018-03-04T16:37:17.722Z,20.70
2018-03-04T16:39:45.366Z,26.87
2018-03-04T16:42:12.938Z,31.57
2018-03-04T16:44:40.574Z,33.93
2018-03-04T16:47:08.143Z,32.47
2018-03-04T16:49:35.689Z,31.37
2018-03-04T16:52:03.866Z,28.83
2018-03-04T16:54:31.443Z,29.40
2018-03-04T16:56:59.022Z,28.13
2018-03-04T16:59:26.623Z,27.07
2018-03-04T17:01:54.231Z,27.67
2018-03-04T17:04:21.821Z,29.13
2018-03-04T17:06:49.527Z,31.57
2018-03-04T17:09:17.093Z,27.50
2018-03-04T17:11:44.664Z,25.13
2018-03-04T17:14:12.437Z,23.53
2018-03-04T17:16:40.001Z,23.23
2018-03-04T17:19:07.615Z,24.20
2018-03-04T17:21:35.274Z,20.40
2018-03-04T17:24:02.872Z,37.27
2018-03-04T17:26:30.457Z,69.33
2018-03-04T17:28:58.415Z,204.27
2018-03-04T17:31:26.013Z,36.90
2018-03-04T17:33:53.591Z,78.00
2018-03-04T17:36:21.180Z,43.87
2018-03-04T17:38:48.787Z,40.90
2018-03-04T17:41:16.357Z,37.93
2018-03-04T17:43:43.959Z,28.90
2018-03-04T17:46:11.622Z,26.40
2018-03-04T17:48:39.262Z,22.03
2018-03-04T17:51:06.889Z,21.97
2018-03-04T17:53:34.459Z,23.33
2018-03-04T17:56:02.067Z,26.47
2018-03-04T17:58:29.681Z,37.67
2018-03-04T18:00:57.258Z,34.47
2018-03-04T18:03:24.841Z,29.77
2018-03-04T18:05:52.772Z,29.80
2018-03-04T18:08:20.321Z,27.20
2018-03-04T18:10:47.899Z,28.00
2018-03-04T18:13:15.533Z,26.67
2018-03-04T18:15:43.080Z,24.27
2018-03-04T18:18:10.665Z,21.97
2018-03-04T18:20:38.408Z,18.90
2018-03-04T18:23:05.978Z,16.93
2018-03-04T18:25:33.554Z,16.73
2018-03-04T18:28:01.340Z,16.13
2018-03-04T18:30:28.877Z,19.37
2018-03-04T18:32:56.504Z,20.73
2018-03-04T18:35:24.135Z,19.77
2018-03-04T18:37:51.745Z,18.53
2018-03-04T18:40:19.382Z,16.87
2018-03-04T18:42:47.093Z,18.87
2018-03-04T18:45:14.694Z,18.80
2018-03-04T18:47:42.254Z,17.40
2018-03-04T18:50:10.020Z,18.63
2018-03-04T18:52:37.628Z,18.23
2018-03-04T18:55:05.262Z,18.53
2018-03-04T18:57:33.060Z,19.00
2018-03-04T19:00:00.641Z,25.83
2018-03-04T19:02:28.278Z,27.00
2018-03-04T19:04:55.910Z,26.60
2018-03-04T19:07:23.488Z,32.40
2018-03-04T19:09:51.077Z,34.53
2018-03-04T19:12:18.820Z,40.83
2018-03-04T19:14:46.421Z,35.87
2018-03-04T19:17:13.987Z,40.60
2018-03-04T19:19:41.704Z,48.00
2018-03-04T19:22:09.561Z,42.83
2018-03-04T19:24:37.166Z,40.47
2018-03-04T19:27:04.896Z,37.87
2018-03-04T19:29:32.512Z,36.50
2018-03-04T19:32:00.133Z,34.60
2018-03-04T19:34:27.772Z,34.43
2018-03-04T19:36:55.417Z,38.77
2018-03-04T19:39:23.047Z,42.63
2018-03-04T19:41:50.677Z,41.40
2018-03-04T19:44:18.256Z,38.53
2018-03-04T19:46:45.808Z,35.03
2018-03-04T19:49:13.429Z,32.87
2018-03-04T19:51:41.012Z,30.37
2018-03-04T19:54:08.614Z,31.97
2018-03-04T19:56:36.460Z,32.80
2018-03-04T19:59:03.972Z,31.20
2018-03-04T20:01:31.621Z,26.63
2018-03-04T20:03:59.284Z,28.33
2018-03-04T20:06:26.858Z,29.63
2018-03-04T20:08:54.455Z,31.43
2018-03-04T20:11:22.046Z,27.40
2018-03-04T20:13:49.653Z,25.90
2018-03-04T20:16:17.446Z,27.13
2018-03-04T20:18:45.032Z,25.90
2018-03-04T20:21:12.605Z,23.77
2018-03-04T20:23:40.216Z,26.60
2018-03-04T20:26:07.789Z,27.00
2018-03-04T20:28:35.347Z,24.80
2018-03-04T20:31:03.048Z,22.40
2018-03-04T20:33:30.603Z,21.57
2018-03-04T20:35:58.161Z,20.20
2018-03-04T20:38:25.928Z,21.33
2018-03-04T20:40:53.490Z,21.53
2018-03-04T20:43:21.116Z,24.97
2018-03-04T20:45:48.709Z,29.00
2018-03-04T20:48:16.262Z,30.97
2018-03-04T20:50:43.838Z,38.93
2018-03-04T20:53:11.606Z,70.00
2018-03-04T20:55:39.166Z,72.03
2018-03-04T20:58:06.732Z,83.47
2018-03-04T21:00:34.342Z,59.43
2018-03-04T21:03:01.900Z,50.07
2018-03-04T21:05:29.477Z,49.20
2018-03-04T21:07:57.217Z,46.33
2018-03-04T21:10:24.798Z,44.60
2018-03-04T21:12:52.341Z,46.77
2018-03-04T21:15:19.947Z,47.03
2018-03-04T21:17:47.507Z,52.03
2018-03-04T21:20:15.062Z,58.07
2018-03-04T21:22:42.664Z,66.87
2018-03-04T21:25:10.232Z,73.77
2018-03-04T21:27:37.829Z,80.13
2018-03-04T21:30:05.548Z,80.57
2018-03-04T21:32:33.120Z,83.00
2018-03-04T21:35:00.675Z,83.20
2018-03-04T21:37:28.258Z,91.07
2018-03-04T21:39:55.820Z,108.50
2018-03-04T21:42:23.392Z,94.23
2018-03-04T21:44:51.087Z,90.80
2018-03-04T21:47:18.665Z,83.33
2018-03-04T21:49:46.235Z,80.63
2018-03-04T21:52:13.877Z,77.50
2018-03-04T21:54:41.435Z,75.57
2018-03-04T21:57:09.006Z,72.07
2018-03-04T21:59:36.771Z,75.13
2018-03-04T22:02:04.348Z,66.40
2018-03-04T22:04:31.918Z,67.60
2018-03-04T22:06:59.514Z,70.03
2018-03-04T22:09:27.079Z,69.07
2018-03-04T22:11:54.649Z,66.83
2018-03-04T22:14:22.382Z,71.70
2018-03-04T22:16:49.932Z,76.83
2018-03-04T22:19:17.496Z,74.40
2018-03-04T22:21:45.109Z,72.40
2018-03-04T22:24:12.653Z,66.10
2018-03-04T22:26:40.206Z,64.33
2018-03-04T22:29:08.095Z,60.90
2018-03-04T22:31:35.663Z,53.90
2018-03-04T22:34:03.230Z,56.33
2018-03-04T22:36:30.805Z,58.40
2018-03-04T22:38:58.346Z,55.63
2018-03-04T22:41:25.897Z,58.37
2018-03-04T22:43:53.481Z,57.50
2018-03-04T22:46:21.031Z,66.10
2018-03-04T22:48:48.596Z,62.00
2018-03-04T22:51:16.204Z,56.23
2018-03-04T22:53:43.768Z,56.63
2018-03-04T22:56:11.332Z,59.13
2018-03-04T22:58:39.030Z,55.40
2018-03-04T23:01:06.590Z,51.77
2018-03-04T23:03:35.092Z,46.13
2018-03-04T23:06:02.689Z,44.20
2018-03-04T23:08:30.239Z,41.47
2018-03-04T23:10:57.791Z,43.67
2018-03-04T23:13:25.682Z,50.10
2018-03-04T23:15:53.218Z,47.60
2018-03-04T23:18:20.798Z,56.47
2018-03-04T23:20:48.490Z,60.10
2018-03-04T23:23:16.058Z,58.20
2018-03-04T23:25:43.616Z,59.50
2018-03-04T23:28:11.364Z,54.27
2018-03-04T23:30:38.915Z,56.57
2018-03-04T23:33:06.460Z,54.53
2018-03-04T23:35:34.220Z,51.70
2018-03-04T23:38:01.784Z,47.73
2018-03-04T23:40:29.362Z,47.60
2018-03-04T23:42:56.953Z,50.17
2018-03-04T23:45:24.527Z,47.30
2018-03-04T23:47:52.069Z,47.77
2018-03-04T23:50:19.801Z,45.07
2018-03-04T23:52:47.345Z,48.97
2018-03-04T23:55:14.904Z,46.33
2018-03-04T23:57:42.494Z,44.93
